PRIVATE WETTERSTATION BILLIGHEIM-ALLFELD                       ZURCK
Wetterdaten: Samstag, 17.06.2017
Datum Zeit Temp. A. Temp. A. min Temp. A. max Feuchte A. Luftdruck Regen Wind Richtung Richtung Sonnenschein ET Solar Taupunkt Windchill Windben Empfang
17.06.2017 00:00 14,5 C 14,5 C 15,1 C 75 % 1022,6 hPa 0,0 l/m 0,0 km/h (0 Bft) N-NW 337 0 min 0,025 mm 0 W/m 10,1 C 14,5 C 1,6 km/h (1 Bft) 99 %
17.06.2017 00:10 14,1 C 14,1 C 14,5 C 76 % 1022,5 hPa 0,0 l/m 0,0 km/h (0 Bft) N-NW 337 0 min 0,000 mm 0 W/m 9,9 C 14,1 C 4,8 km/h (1 Bft) 99 %
17.06.2017 00:20 13,8 C 13,8 C 14,1 C 78 % 1022,5 hPa 0,0 l/m 0,0 km/h (0 Bft) N 0 0 min 0,000 mm 0 W/m 10,0 C 13,8 C 0,0 km/h (0 Bft) 100 %
17.06.2017 00:30 13,6 C 13,6 C 13,8 C 79 % 1022,6 hPa 0,0 l/m 0,0 km/h (0 Bft) N 0 0 min 0,000 mm 0 W/m 10,0 C 13,6 C 0,0 km/h (0 Bft) 99 %
17.06.2017 00:40 13,4 C 13,4 C 13,6 C 80 % 1022,7 hPa 0,0 l/m 0,0 km/h (0 Bft) N 0 0 min 0,000 mm 0 W/m 10,0 C 13,4 C 0,0 km/h (0 Bft) 100 %
17.06.2017 00:50 13,2 C 13,2 C 13,4 C 80 % 1022,7 hPa 0,0 l/m 0,0 km/h (0 Bft) N-NW 337 0 min 0,000 mm 0 W/m 9,8 C 13,2 C 3,2 km/h (1 Bft) 100 %
17.06.2017 01:00 13,1 C 13,1 C 13,2 C 81 % 1022,7 hPa 0,0 l/m 0,0 km/h (0 Bft) N-NW 337 0 min 0,025 mm 0 W/m 9,9 C 13,1 C 4,8 km/h (1 Bft) 99 %
17.06.2017 01:10 12,9 C 12,9 C 13,1 C 80 % 1022,7 hPa 0,0 l/m 1,6 km/h (1 Bft) N-NW 337 0 min 0,000 mm 0 W/m 9,5 C 12,9 C 6,4 km/h (2 Bft) 99 %
17.06.2017 01:20 12,9 C 12,9 C 12,9 C 81 % 1022,7 hPa 0,0 l/m 3,2 km/h (1 Bft) N-NW 337 0 min 0,000 mm 0 W/m 9,7 C 12,9 C 8,0 km/h (2 Bft) 100 %
17.06.2017 01:30 12,7 C 12,7 C 12,9 C 81 % 1022,7 hPa 0,0 l/m 0,0 km/h (0 Bft) NW 315 0 min 0,000 mm 0 W/m 9,5 C 12,7 C 4,8 km/h (1 Bft) 100 %
17.06.2017 01:40 12,6 C 12,6 C 12,7 C 82 % 1022,9 hPa 0,0 l/m 0,0 km/h (0 Bft) N-NW 337 0 min 0,000 mm 0 W/m 9,6 C 12,6 C 3,2 km/h (1 Bft) 100 %
17.06.2017 01:50 12,4 C 12,4 C 12,6 C 83 % 1022,9 hPa 0,0 l/m 0,0 km/h (0 Bft) N 0 0 min 0,000 mm 0 W/m 9,6 C 12,4 C 0,0 km/h (0 Bft) 100 %
17.06.2017 02:00 12,3 C 12,3 C 12,4 C 83 % 1022,9 hPa 0,0 l/m 0,0 km/h (0 Bft) N 0 0 min 0,025 mm 0 W/m 9,5 C 12,3 C 0,0 km/h (0 Bft) 100 %
17.06.2017 02:10 12,3 C 12,3 C 12,3 C 83 % 1023,0 hPa 0,0 l/m 0,0 km/h (0 Bft) N 0 0 min 0,000 mm 0 W/m 9,5 C 12,3 C 0,0 km/h (0 Bft) 100 %
17.06.2017 02:20 12,3 C 12,3 C 12,3 C 83 % 1023,1 hPa 0,0 l/m 0,0 km/h (0 Bft) N 0 0 min 0,000 mm 0 W/m 9,5 C 12,3 C 0,0 km/h (0 Bft) 100 %
17.06.2017 02:30 12,4 C 12,3 C 12,4 C 80 % 1023,0 hPa 0,0 l/m 0,0 km/h (0 Bft) N-NW 337 0 min 0,000 mm 0 W/m 9,0 C 12,4 C 3,2 km/h (1 Bft) 100 %
17.06.2017 02:40 12,5 C 12,4 C 12,5 C 81 % 1023,0 hPa 0,0 l/m 0,0 km/h (0 Bft) N-NW 337 0 min 0,000 mm 0 W/m 9,3 C 12,5 C 1,6 km/h (1 Bft) 100 %
17.06.2017 02:50 12,6 C 12,5 C 12,6 C 81 % 1023,0 hPa 0,0 l/m 0,0 km/h (0 Bft) N-NW 337 0 min 0,000 mm 0 W/m 9,4 C 12,6 C 1,6 km/h (1 Bft) 99 %
17.06.2017 03:00 12,6 C 12,6 C 12,6 C 78 % 1023,0 hPa 0,0 l/m 1,6 km/h (1 Bft) N-NW 337 0 min 0,025 mm 0 W/m 8,9 C 12,6 C 3,2 km/h (1 Bft) 100 %
17.06.2017 03:10 12,6 C 12,6 C 12,6 C 78 % 1023,1 hPa 0,0 l/m 1,6 km/h (1 Bft) N-NW 337 0 min 0,000 mm 0 W/m 8,9 C 12,6 C 4,8 km/h (1 Bft) 100 %
17.06.2017 03:20 12,5 C 12,5 C 12,6 C 78 % 1023,2 hPa 0,0 l/m 1,6 km/h (1 Bft) N-NW 337 0 min 0,000 mm 0 W/m 8,8 C 12,5 C 4,8 km/h (1 Bft) 100 %
17.06.2017 03:30 12,4 C 12,4 C 12,5 C 78 % 1023,2 hPa 0,0 l/m 0,0 km/h (0 Bft) N-NW 337 0 min 0,000 mm 0 W/m 8,7 C 12,4 C 3,2 km/h (1 Bft) 100 %
17.06.2017 03:40 12,2 C 12,2 C 12,4 C 78 % 1023,2 hPa 0,0 l/m 0,0 km/h (0 Bft) N 0 0 min 0,000 mm 0 W/m 8,5 C 12,2 C 0,0 km/h (0 Bft) 100 %
17.06.2017 03:50 12,0 C 12,0 C 12,2 C 80 % 1023,2 hPa 0,0 l/m 0,0 km/h (0 Bft) N 0 0 min 0,000 mm 0 W/m 8,7 C 12,0 C 0,0 km/h (0 Bft) 100 %
17.06.2017 04:00 11,8 C 11,8 C 12,0 C 80 % 1023,1 hPa 0,0 l/m 0,0 km/h (0 Bft) N 0 0 min 0,025 mm 0 W/m 8,5 C 11,8 C 0,0 km/h (0 Bft) 100 %
17.06.2017 04:10 11,7 C 11,7 C 11,8 C 79 % 1023,1 hPa 0,0 l/m 0,0 km/h (0 Bft) N 0 0 min 0,000 mm 0 W/m 8,2 C 11,7 C 0,0 km/h (0 Bft) 100 %
17.06.2017 04:20 11,6 C 11,6 C 11,7 C 79 % 1023,1 hPa 0,0 l/m 0,0 km/h (0 Bft) N 0 0 min 0,000 mm 0 W/m 8,1 C 11,6 C 0,0 km/h (0 Bft) 100 %
17.06.2017 04:30 11,6 C 11,6 C 11,6 C 78 % 1023,3 hPa 0,0 l/m 0,0 km/h (0 Bft) N-NW 337 0 min 0,000 mm 0 W/m 7,9 C 11,6 C 1,6 km/h (1 Bft) 100 %
17.06.2017 04:40 11,6 C 11,6 C 11,6 C 79 % 1023,3 hPa 0,0 l/m 0,0 km/h (0 Bft) N-NW 337 0 min 0,000 mm 0 W/m 8,1 C 11,6 C 4,8 km/h (1 Bft) 100 %
17.06.2017 04:50 11,4 C 11,4 C 11,6 C 79 % 1023,5 hPa 0,0 l/m 0,0 km/h (0 Bft) N-NW 337 0 min 0,000 mm 0 W/m 7,9 C 11,4 C 4,8 km/h (1 Bft) 100 %
17.06.2017 05:00 11,3 C 11,3 C 11,4 C 80 % 1023,7 hPa 0,0 l/m 0,0 km/h (0 Bft) N-NW 337 0 min 0,025 mm 0 W/m 8,0 C 11,3 C 1,6 km/h (1 Bft) 91 %
17.06.2017 05:10 10,9 C 10,9 C 11,3 C 83 % 1023,8 hPa 0,0 l/m 0,0 km/h (0 Bft) N-NW 337 0 min 0,000 mm 0 W/m 8,1 C 10,9 C 3,2 km/h (1 Bft) 100 %
17.06.2017 05:20 10,6 C 10,6 C 10,9 C 84 % 1023,9 hPa 0,0 l/m 0,0 km/h (0 Bft) N-NW 337 0 min 0,000 mm 0 W/m 8,0 C 10,6 C 4,8 km/h (1 Bft) 100 %
17.06.2017 05:30 10,4 C 10,4 C 10,6 C 85 % 1024,0 hPa 0,0 l/m 0,0 km/h (0 Bft) N-NW 337 0 min 0,000 mm 5 W/m 8,0 C 10,4 C 3,2 km/h (1 Bft) 100 %
17.06.2017 05:40 10,3 C 10,3 C 10,4 C 85 % 1024,1 hPa 0,0 l/m 0,0 km/h (0 Bft) N 0 0 min 0,000 mm 9 W/m 7,9 C 10,3 C 0,0 km/h (0 Bft) 100 %
17.06.2017 05:50 10,2 C 10,2 C 10,3 C 86 % 1024,1 hPa 0,0 l/m 0,0 km/h (0 Bft) N 0 0 min 0,000 mm 11 W/m 8,0 C 10,2 C 0,0 km/h (0 Bft) 100 %
17.06.2017 06:00 10,0 C 10,0 C 10,2 C 86 % 1024,1 hPa 0,0 l/m 0,0 km/h (0 Bft) N-NW 337 0 min 0,000 mm 12 W/m 7,8 C 10,0 C 3,2 km/h (1 Bft) 100 %
17.06.2017 06:10 9,8 C 9,8 C 10,0 C 86 % 1024,1 hPa 0,0 l/m 0,0 km/h (0 Bft) N 0 0 min 0,000 mm 14 W/m 7,6 C 9,8 C 0,0 km/h (0 Bft) 99 %
17.06.2017 06:20 9,8 C 9,8 C 9,9 C 87 % 1024,0 hPa 0,0 l/m 0,0 km/h (0 Bft) N-NW 337 0 min 0,000 mm 16 W/m 7,7 C 9,8 C 1,6 km/h (1 Bft) 100 %
17.06.2017 06:30 9,8 C 9,8 C 9,8 C 88 % 1024,1 hPa 0,0 l/m 1,6 km/h (1 Bft) N-NW 337 0 min 0,000 mm 18 W/m 7,9 C 9,8 C 4,8 km/h (1 Bft) 100 %
17.06.2017 06:40 9,8 C 9,8 C 9,9 C 88 % 1024,3 hPa 0,0 l/m 0,0 km/h (0 Bft) N-NW 337 0 min 0,000 mm 18 W/m 7,9 C 9,8 C 6,4 km/h (2 Bft) 100 %
17.06.2017 06:50 9,9 C 9,8 C 9,9 C 88 % 1024,3 hPa 0,0 l/m 1,6 km/h (1 Bft) N-NW 337 0 min 0,000 mm 19 W/m 8,0 C 9,9 C 4,8 km/h (1 Bft) 100 %
17.06.2017 07:00 10,1 C 9,9 C 10,1 C 88 % 1024,3 hPa 0,0 l/m 0,0 km/h (0 Bft) N-NW 337 0 min 0,000 mm 21 W/m 8,2 C 10,1 C 4,8 km/h (1 Bft) 100 %
17.06.2017 07:10 10,2 C 10,1 C 10,2 C 88 % 1024,4 hPa 0,0 l/m 0,0 km/h (0 Bft) N 0 0 min 0,000 mm 21 W/m 8,3 C 10,2 C 0,0 km/h (0 Bft) 100 %
17.06.2017 07:20 10,4 C 10,2 C 10,4 C 89 % 1024,4 hPa 0,0 l/m 0,0 km/h (0 Bft) N 0 0 min 0,000 mm 23 W/m 8,7 C 10,4 C 0,0 km/h (0 Bft) 100 %
17.06.2017 07:30 10,6 C 10,4 C 10,6 C 88 % 1024,4 hPa 0,0 l/m 0,0 km/h (0 Bft) N 0 0 min 0,000 mm 23 W/m 8,7 C 10,6 C 0,0 km/h (0 Bft) 100 %
17.06.2017 07:40 10,7 C 10,6 C 10,7 C 88 % 1024,6 hPa 0,0 l/m 0,0 km/h (0 Bft) N-NW 337 0 min 0,000 mm 25 W/m 8,8 C 10,7 C 4,8 km/h (1 Bft) 100 %
17.06.2017 07:50 11,0 C 10,7 C 11,0 C 87 % 1024,5 hPa 0,0 l/m 4,8 km/h (1 Bft) NW 315 0 min 0,000 mm 26 W/m 8,9 C 11,0 C 14,5 km/h (3 Bft) 100 %
17.06.2017 08:00 11,3 C 11,0 C 11,3 C 86 % 1024,5 hPa 0,0 l/m 1,6 km/h (1 Bft) NW 315 0 min 0,025 mm 32 W/m 9,0 C 11,3 C 9,7 km/h (2 Bft) 100 %
17.06.2017 08:10 11,7 C 11,3 C 11,7 C 85 % 1024,7 hPa 0,0 l/m 4,8 km/h (1 Bft) NW 315 0 min 0,000 mm 35 W/m 9,3 C 11,7 C 14,5 km/h (3 Bft) 89 %
17.06.2017 08:20 12,1 C 11,7 C 12,1 C 83 % 1024,7 hPa 0,0 l/m 6,4 km/h (2 Bft) NW 315 10 min 0,000 mm 425 W/m 9,3 C 12,1 C 17,7 km/h (3 Bft) 100 %
17.06.2017 08:30 13,4 C 12,2 C 13,4 C 83 % 1024,7 hPa 0,0 l/m 6,4 km/h (2 Bft) N-NW 337 10 min 0,000 mm 455 W/m 10,6 C 13,4 C 17,7 km/h (3 Bft) 99 %
17.06.2017 08:40 14,7 C 13,4 C 14,7 C 75 % 1024,6 hPa 0,0 l/m 4,8 km/h (1 Bft) NW 315 10 min 0,000 mm 487 W/m 10,3 C 14,7 C 11,3 km/h (2 Bft) 100 %
17.06.2017 08:50 15,4 C 14,7 C 15,4 C 73 % 1024,6 hPa 0,0 l/m 6,4 km/h (2 Bft) W-NW 292 10 min 0,000 mm 519 W/m 10,6 C 15,4 C 16,1 km/h (3 Bft) 100 %
17.06.2017 09:00 16,2 C 15,5 C 16,2 C 71 % 1024,6 hPa 0,0 l/m 6,4 km/h (2 Bft) NW 315 10 min 0,203 mm 547 W/m 10,9 C 16,2 C 14,5 km/h (3 Bft) 100 %
17.06.2017 09:10 16,6 C 16,2 C 16,6 C 67 % 1024,6 hPa 0,0 l/m 4,8 km/h (1 Bft) NW 315 10 min 0,000 mm 571 W/m 10,4 C 16,6 C 17,7 km/h (3 Bft) 100 %
17.06.2017 09:20 16,9 C 16,6 C 16,9 C 63 % 1024,7 hPa 0,0 l/m 4,8 km/h (1 Bft) NW 315 10 min 0,000 mm 601 W/m 9,8 C 16,9 C 14,5 km/h (3 Bft) 100 %
17.06.2017 09:30 17,3 C 16,9 C 17,3 C 65 % 1024,7 hPa 0,0 l/m 4,8 km/h (1 Bft) NW 315 10 min 0,000 mm 649 W/m 10,7 C 17,3 C 19,3 km/h (3 Bft) 99 %
17.06.2017 09:40 17,4 C 17,3 C 17,4 C 62 % 1024,7 hPa 0,0 l/m 3,2 km/h (1 Bft) NW 315 10 min 0,000 mm 671 W/m 10,0 C 17,4 C 11,3 km/h (2 Bft) 100 %
17.06.2017 09:50 18,4 C 17,4 C 18,4 C 63 % 1024,7 hPa 0,0 l/m 3,2 km/h (1 Bft) NW 315 10 min 0,000 mm 831 W/m 11,2 C 18,4 C 12,9 km/h (3 Bft) 100 %
17.06.2017 10:00 19,1 C 18,4 C 19,1 C 58 % 1024,7 hPa 0,0 l/m 4,8 km/h (1 Bft) W-NW 292 10 min 0,381 mm 911 W/m 10,6 C 19,1 C 16,1 km/h (3 Bft) 100 %
17.06.2017 10:10 19,3 C 19,1 C 19,4 C 56 % 1024,7 hPa 0,0 l/m 4,8 km/h (1 Bft) NW 315 10 min 0,000 mm 847 W/m 10,3 C 19,3 C 20,9 km/h (4 Bft) 99 %
17.06.2017 10:20 18,9 C 18,8 C 19,3 C 62 % 1024,7 hPa 0,0 l/m 3,2 km/h (1 Bft) W-NW 292 10 min 0,000 mm 993 W/m 11,5 C 18,9 C 11,3 km/h (2 Bft) 100 %
17.06.2017 10:30 18,9 C 18,8 C 18,9 C 57 % 1024,7 hPa 0,0 l/m 6,4 km/h (2 Bft) NW 315 10 min 0,000 mm 904 W/m 10,2 C 18,9 C 16,1 km/h (3 Bft) 100 %
17.06.2017 10:40 19,2 C 18,9 C 19,2 C 59 % 1024,8 hPa 0,0 l/m 6,4 km/h (2 Bft) NW 315 10 min 0,000 mm 967 W/m 11,0 C 19,2 C 12,9 km/h (3 Bft) 100 %
17.06.2017 10:50 19,3 C 19,2 C 19,3 C 59 % 1024,8 hPa 0,0 l/m 8,0 km/h (2 Bft) NW 315 10 min 0,000 mm 504 W/m 11,1 C 18,6 C 16,1 km/h (3 Bft) 100 %
17.06.2017 11:00 18,8 C 18,8 C 19,3 C 60 % 1024,8 hPa 0,0 l/m 9,7 km/h (2 Bft) NW 315 10 min 0,381 mm 438 W/m 10,9 C 17,4 C 17,7 km/h (3 Bft) 100 %
17.06.2017 11:10 18,8 C 18,8 C 18,9 C 57 % 1024,8 hPa 0,0 l/m 6,4 km/h (2 Bft) W-NW 292 10 min 0,000 mm 779 W/m 10,1 C 18,8 C 14,5 km/h (3 Bft) 100 %
17.06.2017 11:20 18,8 C 18,8 C 18,8 C 58 % 1024,8 hPa 0,0 l/m 8,0 km/h (2 Bft) W-NW 292 10 min 0,000 mm 415 W/m 10,4 C 18,1 C 19,3 km/h (3 Bft) 100 %
17.06.2017 11:30 18,9 C 18,7 C 18,9 C 61 % 1024,7 hPa 0,0 l/m 5,7 km/h (1 Bft) W-NW 294 10 min 0,000 mm 954 W/m 11,2 C 18,9 C 9,7 km/h (2 Bft) 99 %
17.06.2017 11:40 19,9 C 18,9 C 19,9 C 54 % 1024,7 hPa 0,0 l/m 3,1 km/h (1 Bft) W-NW 290 10 min 0,000 mm 981 W/m 10,3 C 19,9 C 9,7 km/h (2 Bft) 100 %
17.06.2017 11:50 20,4 C 19,9 C 20,4 C 54 % 1024,8 hPa 0,0 l/m 10,0 km/h (2 Bft) NW 323 10 min 0,000 mm 327 W/m 10,8 C 19,1 C 29,0 km/h (5 Bft) 100 %
17.06.2017 12:00 20,5 C 20,4 C 20,6 C 55 % 1024,8 hPa 0,0 l/m 7,0 km/h (2 Bft) W-NW 284 10 min 0,409 mm 330 W/m 11,1 C 20,3 C 17,7 km/h (3 Bft) 100 %
17.06.2017 12:10 20,5 C 20,4 C 20,6 C 56 % 1024,7 hPa 0,0 l/m 8,0 km/h (2 Bft) NW 317 10 min 0,000 mm 338 W/m 11,4 C 19,9 C 19,3 km/h (3 Bft) 100 %
17.06.2017 12:20 20,6 C 20,5 C 20,7 C 57 % 1024,5 hPa 0,0 l/m 3,8 km/h (1 Bft) NW 313 10 min 0,000 mm 378 W/m 11,8 C 20,6 C 9,7 km/h (2 Bft) 100 %
17.06.2017 12:30 20,4 C 20,4 C 20,6 C 57 % 1024,5 hPa 0,0 l/m 4,9 km/h (1 Bft) NW 304 10 min 0,000 mm 394 W/m 11,6 C 20,4 C 16,1 km/h (3 Bft) 100 %
17.06.2017 12:40 20,4 C 20,3 C 20,4 C 58 % 1024,5 hPa 0,0 l/m 6,2 km/h (2 Bft) N 355 10 min 0,000 mm 540 W/m 11,9 C 20,4 C 17,7 km/h (3 Bft) 100 %
17.06.2017 12:50 20,3 C 20,3 C 20,4 C 58 % 1024,7 hPa 0,0 l/m 4,6 km/h (1 Bft) W-NW 284 10 min 0,000 mm 417 W/m 11,8 C 20,3 C 11,3 km/h (2 Bft) 100 %
17.06.2017 13:00 20,1 C 20,1 C 20,3 C 57 % 1024,6 hPa 0,0 l/m 4,6 km/h (1 Bft) W-NW 298 10 min 0,331 mm 441 W/m 11,3 C 20,1 C 17,7 km/h (3 Bft) 100 %
17.06.2017 13:10 20,2 C 20,1 C 20,2 C 58 % 1024,8 hPa 0,0 l/m 6,0 km/h (2 Bft) W 276 10 min 0,000 mm 373 W/m 11,7 C 20,2 C 12,9 km/h (3 Bft) 100 %
17.06.2017 13:20 20,2 C 20,2 C 20,2 C 59 % 1024,7 hPa 0,0 l/m 6,2 km/h (2 Bft) NW 304 10 min 0,000 mm 355 W/m 11,9 C 20,2 C 14,5 km/h (3 Bft) 100 %
17.06.2017 13:30 20,2 C 20,2 C 20,2 C 58 % 1024,7 hPa 0,0 l/m 6,0 km/h (2 Bft) W-NW 296 10 min 0,000 mm 401 W/m 11,7 C 20,2 C 17,7 km/h (3 Bft) 100 %
17.06.2017 13:40 19,9 C 19,9 C 20,2 C 60 % 1024,7 hPa 0,0 l/m 5,9 km/h (2 Bft) N 11 10 min 0,000 mm 427 W/m 11,9 C 19,9 C 17,7 km/h (3 Bft) 100 %
17.06.2017 13:50 19,9 C 19,9 C 19,9 C 60 % 1024,6 hPa 0,0 l/m 6,9 km/h (2 Bft) W-NW 291 10 min 0,000 mm 476 W/m 11,9 C 19,7 C 16,1 km/h (3 Bft) 100 %
17.06.2017 14:00 20,2 C 19,9 C 20,2 C 61 % 1024,6 hPa 0,0 l/m 4,4 km/h (1 Bft) NW 304 10 min 0,279 mm 497 W/m 12,4 C 20,2 C 20,9 km/h (4 Bft) 100 %
17.06.2017 14:10 20,6 C 20,2 C 20,6 C 59 % 1024,6 hPa 0,0 l/m 6,9 km/h (2 Bft) W-NW 299 10 min 0,000 mm 686 W/m 12,3 C 20,4 C 16,1 km/h (3 Bft) 100 %
17.06.2017 14:20 20,9 C 20,6 C 20,9 C 59 % 1024,6 hPa 0,0 l/m 7,8 km/h (2 Bft) W-NW 302 10 min 0,000 mm 621 W/m 12,6 C 20,4 C 19,3 km/h (3 Bft) 99 %
17.06.2017 14:30 21,1 C 20,9 C 21,1 C 59 % 1024,6 hPa 0,0 l/m 10,1 km/h (2 Bft) NW 313 10 min 0,000 mm 636 W/m 12,8 C 19,8 C 19,3 km/h (3 Bft) 100 %
17.06.2017 14:40 21,8 C 21,1 C 21,8 C 58 % 1024,4 hPa 0,0 l/m 8,5 km/h (2 Bft) NW 321 10 min 0,000 mm 1148 W/m 13,2 C 21,1 C 19,3 km/h (3 Bft) 100 %
17.06.2017 14:50 22,2 C 21,8 C 22,2 C 56 % 1024,4 hPa 0,0 l/m 8,9 km/h (2 Bft) W-NW 301 10 min 0,000 mm 392 W/m 13,0 C 21,4 C 20,9 km/h (4 Bft) 100 %
17.06.2017 15:00 21,9 C 21,9 C 22,2 C 56 % 1024,3 hPa 0,0 l/m 5,7 km/h (1 Bft) NW 325 10 min 0,457 mm 991 W/m 12,7 C 21,9 C 16,1 km/h (3 Bft) 100 %
17.06.2017 15:10 22,1 C 21,9 C 22,2 C 55 % 1024,3 hPa 0,0 l/m 6,8 km/h (2 Bft) W 271 10 min 0,000 mm 315 W/m 12,6 C 22,0 C 17,7 km/h (3 Bft) 98 %
17.06.2017 15:20 21,5 C 21,5 C 22,1 C 56 % 1024,2 hPa 0,0 l/m 8,4 km/h (2 Bft) NW 316 10 min 0,000 mm 301 W/m 12,3 C 20,8 C 20,9 km/h (4 Bft) 100 %
17.06.2017 15:30 21,3 C 21,2 C 21,5 C 61 % 1024,4 hPa 0,0 l/m 6,0 km/h (2 Bft) NW 305 10 min 0,000 mm 346 W/m 13,5 C 21,3 C 17,7 km/h (3 Bft) 100 %
17.06.2017 15:40 21,2 C 21,2 C 21,3 C 60 % 1024,3 hPa 0,0 l/m 7,7 km/h (2 Bft) W-NW 294 10 min 0,000 mm 357 W/m 13,1 C 20,7 C 19,3 km/h (3 Bft) 100 %
17.06.2017 15:50 21,1 C 21,1 C 21,2 C 60 % 1024,2 hPa 0,0 l/m 9,2 km/h (2 Bft) NW 310 10 min 0,000 mm 415 W/m 13,0 C 20,1 C 19,3 km/h (3 Bft) 100 %
17.06.2017 16:00 21,1 C 21,1 C 21,1 C 61 % 1024,3 hPa 0,0 l/m 7,8 km/h (2 Bft) NW 309 10 min 0,280 mm 283 W/m 13,3 C 20,6 C 17,7 km/h (3 Bft) 99 %
17.06.2017 16:10 20,9 C 20,9 C 21,1 C 61 % 1024,2 hPa 0,0 l/m 7,1 km/h (2 Bft) NW 315 10 min 0,000 mm 241 W/m 13,1 C 20,6 C 17,7 km/h (3 Bft) 98 %
17.06.2017 16:20 20,7 C 20,7 C 20,9 C 60 % 1024,3 hPa 0,0 l/m 5,5 km/h (1 Bft) W-NW 294 10 min 0,000 mm 199 W/m 12,7 C 20,7 C 17,7 km/h (3 Bft) 100 %
17.06.2017 16:30 20,4 C 20,4 C 20,7 C 61 % 1024,3 hPa 0,0 l/m 9,8 km/h (2 Bft) NW 314 10 min 0,000 mm 232 W/m 12,6 C 19,1 C 17,7 km/h (3 Bft) 100 %
17.06.2017 16:40 20,3 C 20,3 C 20,4 C 63 % 1024,3 hPa 0,0 l/m 9,1 km/h (2 Bft) W 270 10 min 0,000 mm 246 W/m 13,0 C 19,3 C 19,3 km/h (3 Bft) 100 %
17.06.2017 16:50 20,3 C 20,3 C 20,3 C 64 % 1024,4 hPa 0,0 l/m 7,9 km/h (2 Bft) NW 320 10 min 0,000 mm 209 W/m 13,3 C 19,7 C 17,7 km/h (3 Bft) 100 %
17.06.2017 17:00 20,2 C 20,2 C 20,3 C 65 % 1024,3 hPa 0,0 l/m 3,9 km/h (1 Bft) NW 319 10 min 0,177 mm 190 W/m 13,4 C 20,2 C 11,3 km/h (2 Bft) 100 %
17.06.2017 17:10 20,1 C 20,1 C 20,2 C 63 % 1024,2 hPa 0,0 l/m 6,6 km/h (2 Bft) W-NW 298 10 min 0,000 mm 200 W/m 12,8 C 20,0 C 16,1 km/h (3 Bft) 100 %
17.06.2017 17:20 20,1 C 20,1 C 20,1 C 64 % 1024,2 hPa 0,0 l/m 6,3 km/h (2 Bft) NW 318 10 min 0,000 mm 229 W/m 13,1 C 20,1 C 16,1 km/h (3 Bft) 100 %
17.06.2017 17:30 20,1 C 20,1 C 20,1 C 63 % 1024,3 hPa 0,0 l/m 6,6 km/h (2 Bft) W 274 10 min 0,000 mm 225 W/m 12,8 C 20,0 C 12,9 km/h (3 Bft) 99 %
17.06.2017 17:40 20,0 C 20,0 C 20,1 C 65 % 1024,2 hPa 0,0 l/m 3,6 km/h (1 Bft) W-NW 300 0 min 0,000 mm 130 W/m 13,2 C 20,0 C 9,7 km/h (2 Bft) 100 %
17.06.2017 17:50 20,0 C 19,9 C 20,0 C 64 % 1024,0 hPa 0,0 l/m 5,7 km/h (1 Bft) W-NW 300 10 min 0,000 mm 258 W/m 13,0 C 20,0 C 14,5 km/h (3 Bft) 100 %
17.06.2017 18:00 20,0 C 19,9 C 20,0 C 65 % 1023,9 hPa 0,0 l/m 3,3 km/h (1 Bft) W-NW 296 10 min 0,153 mm 163 W/m 13,2 C 20,0 C 9,7 km/h (2 Bft) 100 %
17.06.2017 18:10 19,9 C 19,9 C 20,0 C 65 % 1024,0 hPa 0,0 l/m 2,1 km/h (1 Bft) NW 309 0 min 0,000 mm 105 W/m 13,1 C 19,9 C 9,7 km/h (2 Bft) 100 %
17.06.2017 18:20 19,7 C 19,7 C 19,9 C 65 % 1023,9 hPa 0,0 l/m 4,1 km/h (1 Bft) W 273 0 min 0,000 mm 79 W/m 12,9 C 19,7 C 9,7 km/h (2 Bft) 100 %
17.06.2017 18:30 19,6 C 19,6 C 19,7 C 66 % 1023,9 hPa 0,0 l/m 2,7 km/h (1 Bft) NW 315 0 min 0,000 mm 83 W/m 13,1 C 19,6 C 8,0 km/h (2 Bft) 100 %
17.06.2017 18:40 19,4 C 19,4 C 19,6 C 67 % 1023,9 hPa 0,0 l/m 3,0 km/h (1 Bft) NW 312 0 min 0,000 mm 77 W/m 13,1 C 19,4 C 8,0 km/h (2 Bft) 100 %
17.06.2017 18:50 19,3 C 19,3 C 19,4 C 68 % 1023,8 hPa 0,0 l/m 5,3 km/h (1 Bft) NW 320 0 min 0,000 mm 53 W/m 13,2 C 19,3 C 14,5 km/h (3 Bft) 100 %
17.06.2017 19:00 19,1 C 19,1 C 19,3 C 69 % 1023,9 hPa 0,0 l/m 2,7 km/h (1 Bft) NW 308 0 min 0,076 mm 42 W/m 13,3 C 19,1 C 8,0 km/h (2 Bft) 100 %
17.06.2017 19:10 19,0 C 19,0 C 19,1 C 69 % 1023,8 hPa 0,0 l/m 3,5 km/h (1 Bft) NW 318 0 min 0,000 mm 37 W/m 13,2 C 19,0 C 8,0 km/h (2 Bft) 92 %
17.06.2017 19:20 18,9 C 18,9 C 19,0 C 69 % 1023,8 hPa 0,0 l/m 0,4 km/h (0 Bft) NW 315 0 min 0,000 mm 33 W/m 13,1 C 18,9 C 8,0 km/h (2 Bft) 100 %
17.06.2017 19:30 18,7 C 18,7 C 18,9 C 69 % 1023,7 hPa 0,0 l/m 0,0 km/h (0 Bft) NW 317 0 min 0,000 mm 26 W/m 12,9 C 18,7 C 1,6 km/h (1 Bft) 100 %
17.06.2017 19:40 18,6 C 18,6 C 18,7 C 70 % 1023,7 hPa 0,0 l/m 0,0 km/h (0 Bft) NW 317 0 min 0,000 mm 23 W/m 13,0 C 18,6 C 0,0 km/h (0 Bft) 100 %
17.06.2017 19:50 18,5 C 18,5 C 18,6 C 71 % 1023,8 hPa 0,0 l/m 0,0 km/h (0 Bft) NW 317 0 min 0,000 mm 18 W/m 13,1 C 18,5 C 1,6 km/h (1 Bft) 100 %
17.06.2017 20:00 18,3 C 18,3 C 18,5 C 74 % 1023,9 hPa 0,0 l/m 0,0 km/h (0 Bft) NW 317 0 min 0,025 mm 11 W/m 13,6 C 18,3 C 1,6 km/h (1 Bft) 100 %
17.06.2017 20:10 18,2 C 18,2 C 18,3 C 75 % 1024,0 hPa 0,0 l/m 0,0 km/h (0 Bft) NW 317 0 min 0,000 mm 12 W/m 13,7 C 18,2 C 0,0 km/h (0 Bft) 99 %
17.06.2017 20:20 18,0 C 18,0 C 18,2 C 77 % 1024,1 hPa 0,0 l/m 0,0 km/h (0 Bft) NW 317 0 min 0,000 mm 12 W/m 13,9 C 18,0 C 0,0 km/h (0 Bft) 99 %
17.06.2017 20:30 17,9 C 17,9 C 18,0 C 75 % 1024,1 hPa 0,0 l/m 0,4 km/h (0 Bft) NW 320 0 min 0,000 mm 14 W/m 13,4 C 17,9 C 6,4 km/h (2 Bft) 100 %
17.06.2017 20:40 17,9 C 17,9 C 17,9 C 76 % 1024,1 hPa 0,0 l/m 3,1 km/h (1 Bft) N-NW 329 0 min 0,000 mm 14 W/m 13,6 C 17,9 C 9,7 km/h (2 Bft) 100 %
17.06.2017 20:50 17,9 C 17,8 C 17,9 C 76 % 1024,2 hPa 0,0 l/m 4,0 km/h (1 Bft) NW 323 0 min 0,000 mm 11 W/m 13,6 C 17,9 C 9,7 km/h (2 Bft) 100 %
17.06.2017 21:00 17,8 C 17,8 C 17,9 C 77 % 1024,0 hPa 0,0 l/m 2,2 km/h (1 Bft) N-NW 336 0 min 0,026 mm 7 W/m 13,7 C 17,8 C 9,7 km/h (2 Bft) 100 %
17.06.2017 21:10 17,7 C 17,7 C 17,8 C 77 % 1024,1 hPa 0,0 l/m 4,8 km/h (1 Bft) NW 315 0 min 0,000 mm 7 W/m 13,6 C 17,7 C 11,3 km/h (2 Bft) 100 %
17.06.2017 21:20 17,6 C 17,6 C 17,7 C 77 % 1024,1 hPa 0,0 l/m 3,2 km/h (1 Bft) N-NW 337 0 min 0,000 mm 0 W/m 13,5 C 17,6 C 8,0 km/h (2 Bft) 100 %
17.06.2017 21:30 17,5 C 17,5 C 17,6 C 78 % 1024,2 hPa 0,0 l/m 3,2 km/h (1 Bft) N-NW 337 0 min 0,000 mm 0 W/m 13,6 C 17,5 C 9,7 km/h (2 Bft) 98 %
17.06.2017 21:40 17,3 C 17,3 C 17,5 C 79 % 1024,2 hPa 0,0 l/m 1,6 km/h (1 Bft) N-NW 337 0 min 0,000 mm 0 W/m 13,6 C 17,3 C 6,4 km/h (2 Bft) 100 %
17.06.2017 21:50 17,2 C 17,2 C 17,3 C 80 % 1024,3 hPa 0,0 l/m 0,0 km/h (0 Bft) N-NW 337 0 min 0,000 mm 0 W/m 13,7 C 17,2 C 4,8 km/h (1 Bft) 100 %
17.06.2017 22:00 17,1 C 17,1 C 17,2 C 81 % 1024,4 hPa 0,0 l/m 0,0 km/h (0 Bft) N-NW 337 0 min 0,000 mm 0 W/m 13,8 C 17,1 C 4,8 km/h (1 Bft) 100 %
17.06.2017 22:10 16,9 C 16,9 C 17,1 C 81 % 1024,4 hPa 0,0 l/m 0,0 km/h (0 Bft) N-NW 337 0 min 0,000 mm 0 W/m 13,6 C 16,9 C 1,6 km/h (1 Bft) 100 %
17.06.2017 22:20 16,8 C 16,8 C 16,9 C 82 % 1024,4 hPa 0,0 l/m 0,0 km/h (0 Bft) N 0 0 min 0,000 mm 0 W/m 13,7 C 16,8 C 0,0 km/h (0 Bft) 100 %
17.06.2017 22:30 16,7 C 16,7 C 16,8 C 82 % 1024,4 hPa 0,0 l/m 0,0 km/h (0 Bft) N-NW 337 0 min 0,000 mm 0 W/m 13,6 C 16,7 C 4,8 km/h (1 Bft) 100 %
17.06.2017 22:40 16,6 C 16,6 C 16,7 C 83 % 1024,5 hPa 0,0 l/m 0,0 km/h (0 Bft) N 0 0 min 0,000 mm 0 W/m 13,7 C 16,6 C 0,0 km/h (0 Bft) 100 %
17.06.2017 22:50 16,4 C 16,4 C 16,6 C 84 % 1024,5 hPa 0,0 l/m 0,0 km/h (0 Bft) N 0 0 min 0,000 mm 0 W/m 13,7 C 16,4 C 0,0 km/h (0 Bft) 100 %
17.06.2017 23:00 16,3 C 16,3 C 16,4 C 84 % 1024,5 hPa 0,0 l/m 0,0 km/h (0 Bft) N 0 0 min 0,025 mm 0 W/m 13,6 C 16,3 C 0,0 km/h (0 Bft) 100 %
17.06.2017 23:10 16,2 C 16,2 C 16,3 C 84 % 1024,6 hPa 0,0 l/m 0,0 km/h (0 Bft) N 0 0 min 0,000 mm 0 W/m 13,5 C 16,2 C 0,0 km/h (0 Bft) 100 %
17.06.2017 23:20 16,1 C 16,1 C 16,2 C 84 % 1024,6 hPa 0,0 l/m 0,0 km/h (0 Bft) N 0 0 min 0,000 mm 0 W/m 13,4 C 16,1 C 0,0 km/h (0 Bft) 100 %
17.06.2017 23:30 16,0 C 16,0 C 16,1 C 85 % 1024,7 hPa 0,0 l/m 0,0 km/h (0 Bft) N 0 0 min 0,000 mm 0 W/m 13,5 C 16,0 C 0,0 km/h (0 Bft) 100 %
17.06.2017 23:40 16,0 C 16,0 C 16,1 C 84 % 1024,6 hPa 0,0 l/m 0,0 km/h (0 Bft) N 0 0 min 0,000 mm 0 W/m 13,3 C 16,0 C 0,0 km/h (0 Bft) 100 %
17.06.2017 23:50 16,0 C 16,0 C 16,1 C 85 % 1024,7 hPa 0,0 l/m 0,0 km/h (0 Bft) N 0 0 min 0,000 mm 0 W/m 13,5 C 16,0 C 0,0 km/h (0 Bft) 100 %
_ Min-Zeit 06:10 06:10 06:30 11:40 00:10 - 00:00 - - - - - 06:10 06:10 00:20 08:10
Minimum _ 9,8 C 9,8 C 9,8 C 54 % 1022,5 hPa - 0,0 km/h (0 Bft) - - - - - 7,6 C 9,8 C 0,0 km/h (0 Bft) 89 %
_ Max-Zeit 14:50 15:00 14:50 07:20 10:40 00:00 14:30 - - 08:20 15:00 14:40 20:20 15:10 11:50 00:40
Maximum _ 22,2 C 21,9 C 22,2 C 89 % 1024,8 hPa 0,0 l/m 10,1 km/h
NW (2 Bft)
- - 10 min 0,457 mm 1148 W/m 13,9 C 22,0 C 29,0 km/h
NW (5 Bft)
100 %
Durchschnitt _ 16,4 C 16,3 C 16,5 C 72 % 1024,1 hPa #0,0 l/m 3,1 km/h (1 Bft) NW - #9:40 h #3,378 mm 317 W/m 11,1 C 16,3 C 8,9 km/h (2 Bft) 100 %
PRIVATE WETTERSTATION BILLIGHEIM-ALLFELD - www.neckar-odenwald-wetter.de - Holger Sonntag